createdAt,value
2019-05-19T00:01:04.507Z,13.70
2019-05-19T00:03:45.925Z,13.60
2019-05-19T00:06:27.720Z,13.60
2019-05-19T00:09:09.534Z,13.60
2019-05-19T00:15:10.124Z,13.50
2019-05-19T00:17:51.007Z,13.50
2019-05-19T00:26:46.323Z,13.50
2019-05-19T00:29:27.495Z,13.50
2019-05-19T00:32:08.498Z,13.50
2019-05-19T00:34:49.964Z,13.40
2019-05-19T00:37:50.121Z,13.40
2019-05-19T00:40:30.872Z,13.40
2019-05-19T00:43:11.791Z,13.50
2019-05-19T00:49:01.568Z,13.40
2019-05-19T00:51:42.541Z,13.50
2019-05-19T00:54:23.946Z,13.50
2019-05-19T00:57:05.487Z,13.40
2019-05-19T00:59:46.883Z,13.40
2019-05-19T01:02:28.464Z,13.30
2019-05-19T01:05:10.097Z,13.30
2019-05-19T01:07:51.516Z,13.20
2019-05-19T01:10:32.220Z,13.30
2019-05-19T01:13:13.803Z,13.30
2019-05-19T01:15:55.306Z,13.20
2019-05-19T01:18:36.191Z,13.10
2019-05-19T01:21:17.820Z,13.10
2019-05-19T01:23:59.365Z,13.10
2019-05-19T01:26:40.762Z,13.00
2019-05-19T01:29:22.395Z,13.00
2019-05-19T01:32:03.923Z,12.90
2019-05-19T01:34:45.511Z,13.00
2019-05-19T01:37:26.896Z,13.00
2019-05-19T01:40:07.930Z,12.90
2019-05-19T01:46:09.091Z,12.90
2019-05-19T01:48:50.609Z,12.90
2019-05-19T01:51:31.589Z,12.90
2019-05-19T01:54:12.520Z,12.90
2019-05-19T01:56:53.272Z,12.90
2019-05-19T01:59:34.023Z,12.90
2019-05-19T02:02:15.377Z,12.90
2019-05-19T02:08:05.318Z,12.90
2019-05-19T02:10:46.056Z,12.90
2019-05-19T02:13:27.951Z,12.90
2019-05-19T02:16:09.479Z,12.90
2019-05-19T02:18:51.005Z,12.90
2019-05-19T02:21:32.242Z,12.90
2019-05-19T02:24:13.586Z,13.00
2019-05-19T02:26:54.902Z,13.00
2019-05-19T02:29:36.574Z,13.10
2019-05-19T02:32:17.709Z,13.10
2019-05-19T02:34:59.281Z,13.10
2019-05-19T02:37:40.056Z,13.10
2019-05-19T02:40:21.026Z,13.10
2019-05-19T02:43:21.334Z,13.10
2019-05-19T02:46:01.972Z,13.10
2019-05-19T02:48:43.559Z,13.00
2019-05-19T02:51:24.894Z,13.00
2019-05-19T02:54:06.450Z,13.10
2019-05-19T02:59:56.030Z,13.10
2019-05-19T03:02:36.768Z,13.10
2019-05-19T03:05:37.158Z,13.10
2019-05-19T03:08:18.704Z,13.00
2019-05-19T03:10:59.421Z,13.00
2019-05-19T03:13:41.020Z,13.00
2019-05-19T03:16:22.638Z,13.00
2019-05-19T03:19:04.397Z,13.00
2019-05-19T03:21:45.743Z,13.00
2019-05-19T03:24:27.321Z,13.00
2019-05-19T03:27:08.991Z,13.00
2019-05-19T03:29:53.825Z,13.00
2019-05-19T03:33:02.670Z,12.90
2019-05-19T03:35:51.126Z,12.90
2019-05-19T03:38:39.973Z,12.90
2019-05-19T03:41:29.147Z,12.90
2019-05-19T03:44:17.661Z,12.80
2019-05-19T03:47:06.280Z,12.80
2019-05-19T03:49:54.771Z,12.90
2019-05-19T03:52:43.559Z,12.90
2019-05-19T03:55:32.049Z,13.00
2019-05-19T03:58:20.526Z,13.10
2019-05-19T04:01:09.289Z,13.00
2019-05-19T04:03:57.802Z,13.00
2019-05-19T04:10:15.973Z,13.30
2019-05-19T04:13:04.454Z,13.30
2019-05-19T04:15:52.912Z,13.30
2019-05-19T04:22:12.314Z,13.90
2019-05-19T04:25:00.884Z,14.20
2019-05-19T04:27:49.375Z,14.10
2019-05-19T04:30:29.959Z,14.30
2019-05-19T04:33:11.117Z,14.20
2019-05-19T04:35:52.215Z,14.30
2019-05-19T04:38:33.539Z,14.40
2019-05-19T04:41:14.274Z,14.30
2019-05-19T04:43:55.653Z,14.20
2019-05-19T04:46:36.326Z,14.20
2019-05-19T04:49:17.055Z,14.00
2019-05-19T04:52:06.863Z,13.90
2019-05-19T04:54:41.460Z,14.00
2019-05-19T04:57:22.998Z,14.20
2019-05-19T05:00:03.792Z,14.20
2019-05-19T05:02:44.861Z,14.20
2019-05-19T05:11:48.782Z,14.00
2019-05-19T05:14:30.145Z,14.00
2019-05-19T05:17:11.562Z,14.00
2019-05-19T05:19:53.020Z,13.90
2019-05-19T05:22:34.632Z,13.90
2019-05-19T05:25:16.437Z,13.80
2019-05-19T05:27:57.836Z,13.70
2019-05-19T05:30:39.203Z,13.70
2019-05-19T05:36:27.725Z,13.70
2019-05-19T05:39:08.005Z,13.80
2019-05-19T05:41:48.732Z,13.80
2019-05-19T05:47:35.065Z,14.00
2019-05-19T05:50:15.921Z,13.90
2019-05-19T05:59:09.784Z,14.20
2019-05-19T06:02:09.461Z,14.10
2019-05-19T06:04:50.934Z,14.10
2019-05-19T06:07:50.455Z,14.10
2019-05-19T06:10:31.240Z,13.90
2019-05-19T06:13:12.784Z,14.00
2019-05-19T06:15:54.112Z,14.10
2019-05-19T06:18:35.606Z,14.20
2019-05-19T06:21:16.302Z,14.30
2019-05-19T06:23:57.110Z,14.40
2019-05-19T06:26:38.412Z,14.40
2019-05-19T06:29:19.261Z,14.50
2019-05-19T06:32:05.097Z,14.90
2019-05-19T06:34:46.550Z,14.80
2019-05-19T06:37:28.161Z,15.20
2019-05-19T06:40:09.428Z,15.70
2019-05-19T06:42:50.376Z,15.40
2019-05-19T06:45:32.070Z,15.30
2019-05-19T06:48:32.467Z,15.20
2019-05-19T06:51:13.555Z,15.10
2019-05-19T06:53:54.527Z,15.30
2019-05-19T06:56:36.122Z,15.40
2019-05-19T06:59:17.605Z,15.30
2019-05-19T07:01:58.337Z,15.30
2019-05-19T07:07:48.382Z,15.50
2019-05-19T07:10:29.815Z,15.50
2019-05-19T07:13:10.810Z,15.20
2019-05-19T07:16:11.097Z,15.20
2019-05-19T07:22:01.261Z,15.60
2019-05-19T07:30:48.839Z,15.60
2019-05-19T07:33:18.255Z,15.80
2019-05-19T07:36:25.236Z,15.90
2019-05-19T07:39:14.039Z,16.30
2019-05-19T07:42:01.784Z,16.30
2019-05-19T07:47:39.211Z,16.40
2019-05-19T07:50:45.833Z,16.30
2019-05-19T07:53:42.592Z,16.60
2019-05-19T07:56:24.668Z,17.20
2019-05-19T07:59:13.492Z,16.90
2019-05-19T08:02:00.658Z,17.00
2019-05-19T08:04:49.159Z,17.20
2019-05-19T08:07:37.716Z,17.00
2019-05-19T08:11:02.871Z,17.20
2019-05-19T08:13:51.330Z,16.70
2019-05-19T08:16:39.826Z,17.00
2019-05-19T08:19:28.302Z,17.20
2019-05-19T08:22:17.082Z,17.50
2019-05-19T08:25:22.987Z,17.30
2019-05-19T08:28:11.436Z,17.10
2019-05-19T08:30:52.981Z,17.50
2019-05-19T08:33:33.659Z,17.20
2019-05-19T08:39:19.365Z,17.10
2019-05-19T08:48:09.259Z,17.20
2019-05-19T08:54:15.034Z,17.70
2019-05-19T08:56:52.105Z,17.70
2019-05-19T08:59:32.818Z,17.10
2019-05-19T09:08:23.816Z,18.40
2019-05-19T09:11:05.173Z,18.70
2019-05-19T09:14:05.735Z,18.80
2019-05-19T09:16:47.240Z,18.80
2019-05-19T09:28:57.939Z,18.40
2019-05-19T09:34:43.597Z,18.00
2019-05-19T09:37:44.013Z,17.80
2019-05-19T09:40:26.691Z,17.90
2019-05-19T09:43:07.714Z,18.60
2019-05-19T09:45:49.644Z,18.60
2019-05-19T09:48:30.983Z,19.10
2019-05-19T09:51:11.992Z,19.20
2019-05-19T10:00:19.921Z,19.60
2019-05-19T10:06:06.965Z,20.00
2019-05-19T10:09:30.570Z,20.10
2019-05-19T10:12:19.497Z,19.90
2019-05-19T10:15:37.482Z,20.70
2019-05-19T10:18:06.886Z,20.50
2019-05-19T10:20:36.682Z,20.10
2019-05-19T10:23:23.588Z,19.80
2019-05-19T10:29:00.878Z,19.60
2019-05-19T10:31:42.429Z,19.80
2019-05-19T10:40:46.629Z,20.10
2019-05-19T10:43:47.161Z,20.00
2019-05-19T10:46:28.841Z,20.40
2019-05-19T10:52:03.693Z,20.60
2019-05-19T10:54:45.273Z,20.20
2019-05-19T10:57:26.236Z,20.40
2019-05-19T11:00:07.823Z,20.60
2019-05-19T11:08:59.543Z,20.90
2019-05-19T11:11:40.731Z,20.00
2019-05-19T11:14:22.221Z,20.20
2019-05-19T11:17:03.676Z,20.30
2019-05-19T11:19:44.985Z,20.40
2019-05-19T11:22:26.518Z,20.40
2019-05-19T11:25:08.031Z,20.20
2019-05-19T11:27:49.704Z,20.40
2019-05-19T11:33:38.644Z,20.80
2019-05-19T11:36:20.152Z,20.90
2019-05-19T11:39:01.909Z,20.90
2019-05-19T11:44:48.231Z,21.00
2019-05-19T11:56:45.223Z,21.10
2019-05-19T12:02:35.127Z,21.20
2019-05-19T12:08:15.611Z,21.60
2019-05-19T12:14:35.084Z,21.40
2019-05-19T12:17:16.883Z,21.20
2019-05-19T12:19:58.145Z,21.30
2019-05-19T12:22:27.553Z,21.60
2019-05-19T12:25:16.058Z,22.10
2019-05-19T12:27:45.873Z,22.50
2019-05-19T12:30:27.580Z,21.70
2019-05-19T12:33:08.336Z,21.90
2019-05-19T12:35:49.729Z,22.00
2019-05-19T12:38:19.100Z,22.30
2019-05-19T12:41:25.333Z,21.80
2019-05-19T12:44:14.142Z,21.90
2019-05-19T12:47:20.421Z,22.60
2019-05-19T12:50:29.278Z,22.40
2019-05-19T12:53:17.752Z,22.30
2019-05-19T12:56:06.222Z,21.90
2019-05-19T12:59:12.917Z,22.30
2019-05-19T13:02:19.092Z,22.00
2019-05-19T13:05:07.084Z,21.30
2019-05-19T13:08:13.058Z,20.80
2019-05-19T13:11:19.323Z,20.80
2019-05-19T13:14:07.581Z,21.30
2019-05-19T13:20:06.166Z,21.80
2019-05-19T13:26:06.298Z,21.70
2019-05-19T13:29:06.945Z,21.70
2019-05-19T13:35:05.478Z,21.60
2019-05-19T13:37:46.203Z,22.10
2019-05-19T13:46:42.083Z,22.00
2019-05-19T13:58:42.674Z,21.70
2019-05-19T14:01:28.528Z,21.60
2019-05-19T14:22:34.641Z,21.40
2019-05-19T14:28:21.145Z,21.20
2019-05-19T14:37:15.317Z,21.70
2019-05-19T14:39:56.605Z,21.50
2019-05-19T14:48:56.572Z,21.70
2019-05-19T14:51:56.192Z,22.20
2019-05-19T14:54:37.339Z,22.20
2019-05-19T15:00:23.169Z,22.90
2019-05-19T15:03:04.635Z,23.30
2019-05-19T15:05:46.305Z,23.00
2019-05-19T15:08:27.512Z,23.10
2019-05-19T15:14:13.576Z,23.10
2019-05-19T15:16:55.503Z,22.50
2019-05-19T15:19:37.190Z,22.30
2019-05-19T15:22:18.589Z,22.20
2019-05-19T15:25:00.345Z,22.50
2019-05-19T15:27:41.508Z,22.50
2019-05-19T15:30:22.211Z,22.90
2019-05-19T15:33:03.615Z,22.90
2019-05-19T15:35:44.716Z,23.40
2019-05-19T15:38:26.305Z,23.00
2019-05-19T15:41:07.265Z,22.90
2019-05-19T15:43:48.735Z,23.60
2019-05-19T15:46:29.437Z,23.70
2019-05-19T15:48:58.849Z,23.50
2019-05-19T15:52:00.273Z,23.00
2019-05-19T15:54:37.448Z,23.00
2019-05-19T15:57:28.601Z,23.00
2019-05-19T16:00:16.164Z,23.20
2019-05-19T16:03:04.662Z,23.50
2019-05-19T16:05:53.170Z,23.30
2019-05-19T16:08:41.633Z,23.30
2019-05-19T16:11:30.263Z,23.00
2019-05-19T16:18:02.652Z,22.70
2019-05-19T16:20:51.451Z,22.80
2019-05-19T16:23:40.219Z,22.80
2019-05-19T16:26:28.715Z,22.30
2019-05-19T16:29:17.484Z,22.00
2019-05-19T16:31:58.255Z,21.70
2019-05-19T16:34:39.686Z,21.60
2019-05-19T16:37:09.385Z,21.50
2019-05-19T16:42:46.648Z,21.30
2019-05-19T16:45:35.423Z,21.20
2019-05-19T16:48:24.076Z,21.10
2019-05-19T16:56:58.237Z,20.80
2019-05-19T16:59:46.709Z,20.90
2019-05-19T17:02:35.217Z,20.90
2019-05-19T17:05:23.704Z,20.80
2019-05-19T17:08:12.222Z,20.70
2019-05-19T17:11:00.694Z,20.70
2019-05-19T17:13:49.206Z,20.70
2019-05-19T17:16:37.711Z,20.60
2019-05-19T17:19:26.224Z,20.60
2019-05-19T17:22:15.031Z,20.60
2019-05-19T17:27:52.284Z,20.50
2019-05-19T17:30:40.761Z,20.60
2019-05-19T17:33:47.089Z,20.50
2019-05-19T17:36:35.596Z,20.50
2019-05-19T17:39:25.530Z,20.50
2019-05-19T17:42:14.048Z,20.40
2019-05-19T17:45:02.330Z,20.20
2019-05-19T17:50:57.069Z,20.00
2019-05-19T17:53:46.231Z,19.80
2019-05-19T18:00:00.224Z,19.10
2019-05-19T18:02:48.746Z,18.60
2019-05-19T18:09:55.205Z,17.60
2019-05-19T18:12:43.986Z,17.30
2019-05-19T18:15:32.460Z,17.20
2019-05-19T18:18:38.351Z,17.10
2019-05-19T18:21:26.833Z,17.10
2019-05-19T18:27:47.190Z,17.00
2019-05-19T18:30:58.513Z,17.00
2019-05-19T18:33:39.459Z,17.10
2019-05-19T18:36:20.952Z,17.00
2019-05-19T18:45:17.188Z,17.00
2019-05-19T18:48:17.649Z,16.90
2019-05-19T18:51:17.166Z,16.90
2019-05-19T18:53:59.001Z,16.90
2019-05-19T19:03:03.122Z,16.80
2019-05-19T19:05:44.680Z,16.70
2019-05-19T19:08:25.484Z,16.70
2019-05-19T19:11:25.079Z,16.70
2019-05-19T19:17:11.037Z,16.70
2019-05-19T19:29:14.247Z,16.70
2019-05-19T19:35:15.251Z,16.60
2019-05-19T19:37:56.575Z,16.70
2019-05-19T19:40:38.160Z,16.70
2019-05-19T19:43:19.199Z,16.70
2019-05-19T19:46:00.705Z,16.80
2019-05-19T19:48:42.136Z,16.70
2019-05-19T19:51:23.493Z,16.70
2019-05-19T19:54:05.061Z,16.70
2019-05-19T19:56:46.779Z,16.70
2019-05-19T20:09:07.348Z,16.60
2019-05-19T20:12:07.018Z,16.50
2019-05-19T20:14:48.976Z,16.50
2019-05-19T20:17:30.552Z,16.50
2019-05-19T20:23:15.720Z,16.50
2019-05-19T20:25:57.269Z,16.50
2019-05-19T20:28:38.855Z,16.50
2019-05-19T20:34:16.005Z,16.60
2019-05-19T20:37:04.656Z,16.50
2019-05-19T20:39:53.197Z,16.50
2019-05-19T20:42:41.672Z,16.40
2019-05-19T20:45:30.456Z,16.40
2019-05-19T20:48:19.641Z,16.40
2019-05-19T20:51:08.419Z,16.30
2019-05-19T20:53:56.907Z,16.30
2019-05-19T20:56:45.441Z,16.30
2019-05-19T20:59:15.199Z,16.30
2019-05-19T21:02:03.808Z,16.30
2019-05-19T21:04:52.613Z,16.30
2019-05-19T21:07:22.029Z,16.20
2019-05-19T21:10:11.333Z,16.10
2019-05-19T21:12:59.802Z,16.10
2019-05-19T21:15:48.331Z,16.10
2019-05-19T21:18:37.132Z,16.10
2019-05-19T21:21:25.608Z,16.10
2019-05-19T21:24:14.088Z,16.00
2019-05-19T21:27:02.586Z,16.10
2019-05-19T21:29:51.318Z,15.90
2019-05-19T21:35:40.488Z,15.90
2019-05-19T21:38:21.744Z,15.80
2019-05-19T21:41:03.316Z,15.80
2019-05-19T21:43:44.859Z,15.60
2019-05-19T21:46:25.770Z,15.60
2019-05-19T21:49:06.712Z,15.60
2019-05-19T21:51:47.591Z,15.50
2019-05-19T21:54:28.679Z,15.50
2019-05-19T21:57:09.846Z,15.50
2019-05-19T21:59:50.591Z,15.40
2019-05-19T22:02:31.606Z,15.40
2019-05-19T22:05:13.155Z,15.20
2019-05-19T22:08:01.660Z,15.10
2019-05-19T22:10:43.007Z,14.90
2019-05-19T22:13:23.938Z,14.90
2019-05-19T22:16:13.061Z,14.80
2019-05-19T22:18:47.249Z,14.70
2019-05-19T22:21:29.013Z,14.70
2019-05-19T22:24:10.409Z,14.70
2019-05-19T22:26:51.943Z,14.80
2019-05-19T22:29:31.532Z,14.80
2019-05-19T22:32:13.454Z,14.80
2019-05-19T22:38:02.163Z,14.70
2019-05-19T22:40:50.655Z,14.70
2019-05-19T22:43:39.115Z,14.70
2019-05-19T22:46:27.880Z,14.60
2019-05-19T22:49:16.362Z,14.60
2019-05-19T22:51:45.770Z,14.60
2019-05-19T22:54:34.586Z,14.50
2019-05-19T22:57:23.064Z,14.50
2019-05-19T23:00:12.127Z,14.50
2019-05-19T23:02:59.176Z,14.40
2019-05-19T23:05:48.033Z,14.30
2019-05-19T23:08:36.546Z,14.20
2019-05-19T23:11:25.018Z,14.00
2019-05-19T23:14:13.498Z,13.90
2019-05-19T23:17:02.335Z,13.80
2019-05-19T23:19:51.207Z,13.70
2019-05-19T23:22:39.712Z,13.50
2019-05-19T23:25:28.325Z,13.40
2019-05-19T23:28:16.837Z,13.20
2019-05-19T23:30:58.291Z,13.10
2019-05-19T23:33:39.155Z,13.00
2019-05-19T23:39:25.021Z,12.80
2019-05-19T23:42:05.754Z,12.80
2019-05-19T23:44:47.146Z,12.80
2019-05-19T23:47:28.500Z,12.80
2019-05-19T23:50:09.228Z,12.70
2019-05-19T23:52:50.920Z,12.60
2019-05-19T23:55:32.531Z,12.60
2019-05-19T23:58:14.088Z,12.70
